Time;durP1;ratioP1;P1;durP2;ratioP2;P2;SDS_P1;SDS_P2;PMS_P1;PMS_P2;Temp;Humidity;BMP_temperature;BMP_pressure;BME280_temperature;BME280_humidity;BME280_pressure;Samples;Min_cycle;Max_cycle;Signal;HPM_P1;HPM_P2
2021/12/12 00:02:32;;;;;;;;;58.33;47.67;;;;;21.03;44.06;101505.77;109343;1280;21424;-74
2021/12/12 00:05:03;;;;;;;;;62.67;48.00;;;;;21.05;44.03;101499.40;109545;1280;19699;-72
2021/12/12 00:07:30;;;;;;;;;55.50;47.50;;;;;21.05;44.16;101497.20;109429;1279;20881;-75
2021/12/12 00:09:56;;;;;;;;;61.33;47.00;;;;;21.06;44.17;101504.35;109225;1279;19523;-74
2021/12/12 00:12:23;;;;;;;;;63.67;48.00;;;;;21.06;44.13;101502.92;109290;1278;62209;-87
2021/12/12 00:15:30;;;;;;;;;55.00;45.33;;;;;21.05;44.22;101507.79;108981;1278;19270;-87
2021/12/12 00:18:03;;;;;;;;;63.00;49.00;;;;;21.04;43.93;101504.20;103031;1280;7882157;-87
2021/12/12 00:20:34;;;;;;;;;65.67;51.00;;;;;21.07;44.12;101513.18;108867;1280;21379;-87
2021/12/12 00:23:02;;;;;;;;;63.00;47.00;;;;;21.07;43.99;101520.27;108990;1280;18923;-87
2021/12/12 00:25:30;;;;;;;;;59.67;47.33;;;;;21.07;44.10;101515.56;108976;1280;19978;-87
2021/12/12 00:27:56;;;;;;;;;54.67;45.00;;;;;21.07;44.11;101516.04;108973;1280;18790;-88
2021/12/12 00:30:41;;;;;;;;;59.50;48.00;;;;;21.06;44.05;101519.28;109108;1280;18908;-88
2021/12/12 00:33:16;;;;;;;;;64.67;48.00;;;;;21.06;44.02;101517.44;108972;1278;19485;-88
2021/12/12 00:35:52;;;;;;;;;59.33;45.67;;;;;21.06;43.88;101518.88;109332;1277;18947;-73
2021/12/12 00:38:18;;;;;;;;;60.67;47.67;;;;;21.06;43.95;101519.27;109214;1279;18866;-74
2021/12/12 00:40:44;;;;;;;;;58.33;47.00;;;;;21.06;43.95;101517.44;109179;1279;20259;-73
2021/12/12 00:43:10;;;;;;;;;60.67;49.00;;;;;21.06;44.00;101514.77;109262;1278;18610;-73
2021/12/12 00:45:36;;;;;;;;;62.67;47.00;;;;;21.05;43.90;101512.35;109142;1279;18946;-73
2021/12/12 00:48:02;;;;;;;;;61.00;51.00;;;;;21.04;43.91;101517.51;109260;1279;19375;-73
2021/12/12 00:50:28;;;;;;;;;61.67;49.00;;;;;21.04;44.00;101523.83;109276;1280;18609;-73
2021/12/12 00:52:54;;;;;;;;;56.67;46.33;;;;;21.03;43.97;101526.30;109256;1280;19281;-74
2021/12/12 00:55:20;;;;;;;;;64.00;50.00;;;;;21.04;43.77;101525.15;109239;1280;20080;-73
2021/12/12 00:57:53;;;;;;;;;61.00;47.00;;;;;21.03;43.94;101529.54;109237;1280;18978;-73
2021/12/12 01:00:19;;;;;;;;;63.00;48.00;;;;;21.03;43.87;101539.96;109245;1279;19137;-74
2021/12/12 01:02:45;;;;;;;;;60.33;48.00;;;;;21.02;44.03;101539.17;109286;1279;21380;-74
2021/12/12 01:05:11;;;;;;;;;65.00;48.00;;;;;21.02;44.03;101541.32;109289;1280;23386;-73
2021/12/12 01:07:37;;;;;;;;;62.50;48.00;;;;;21.01;44.00;101545.74;109273;1280;22249;-73
2021/12/12 01:10:03;;;;;;;;;55.67;47.00;;;;;21.01;44.04;101547.24;109301;1279;19300;-74
2021/12/12 01:12:28;;;;;;;;;64.33;47.67;;;;;21.02;44.00;101554.27;109281;1279;23013;-75
2021/12/12 01:14:55;;;;;;;;;60.67;48.67;;;;;21.01;43.95;101548.13;109265;1280;22038;-75
2021/12/12 01:17:21;;;;;;;;;57.00;47.00;;;;;21.00;43.82;101545.71;109256;1280;19653;-74
2021/12/12 01:19:49;;;;;;;;;63.33;50.67;;;;;21.01;43.96;101555.08;109302;1280;19175;-75
2021/12/12 01:22:17;;;;;;;;;60.67;47.00;;;;;20.99;43.95;101553.79;109282;1279;19669;-74
2021/12/12 01:24:44;;;;;;;;;66.67;50.67;;;;;21.00;44.00;101555.94;109277;1280;21048;-75
2021/12/12 01:27:10;;;;;;;;;59.00;48.00;;;;;21.00;43.88;101563.90;109268;1279;19359;-75
2021/12/12 01:29:36;;;;;;;;;61.67;49.00;;;;;21.01;43.89;101559.81;109271;1278;19311;-73
2021/12/12 01:32:03;;;;;;;;;66.00;49.00;;;;;21.01;43.94;101559.38;109250;1279;22374;-73
2021/12/12 01:34:30;;;;;;;;;57.00;44.67;;;;;21.01;43.84;101555.77;109251;1280;18906;-73
2021/12/12 01:37:09;;;;;;;;;60.67;48.67;;;;;21.00;43.96;101572.97;109238;1279;19152;-73
2021/12/12 01:39:35;;;;;;;;;57.33;47.00;;;;;21.00;43.80;101572.93;109258;1279;19628;-73
2021/12/12 01:42:01;;;;;;;;;62.33;48.33;;;;;21.00;44.00;101566.63;109263;1280;19292;-73
2021/12/12 01:44:27;;;;;;;;;59.67;48.67;;;;;21.00;43.80;101568.05;109178;1279;19131;-73
2021/12/12 01:46:53;;;;;;;;;62.67;49.33;;;;;21.01;43.85;101563.26;109307;1279;19693;-73
2021/12/12 01:49:19;;;;;;;;;62.33;49.33;;;;;21.00;43.76;101559.20;109271;1279;18776;-71
2021/12/12 01:51:45;;;;;;;;;62.33;47.33;;;;;20.99;43.71;101561.23;109246;1280;18748;-73
2021/12/12 01:54:11;;;;;;;;;59.67;47.00;;;;;20.99;43.80;101567.04;109294;1279;19838;-73
2021/12/12 01:56:41;;;;;;;;;60.00;48.00;;;;;20.99;43.80;101566.91;109288;1280;19709;-73
2021/12/12 01:59:07;;;;;;;;;63.00;49.00;;;;;20.99;43.76;101564.34;109289;1280;19160;-73
2021/12/12 02:01:33;;;;;;;;;60.67;47.67;;;;;21.00;43.69;101567.20;109253;1280;19480;-73
2021/12/12 02:03:59;;;;;;;;;56.33;48.00;;;;;21.00;43.70;101558.27;109273;1280;18627;-73
2021/12/12 02:06:25;;;;;;;;;60.00;48.00;;;;;20.99;43.73;101556.35;109218;1279;18982;-73
2021/12/12 02:08:51;;;;;;;;;64.00;49.33;;;;;21.00;43.83;101560.63;109259;1280;22974;-73
2021/12/12 02:11:17;;;;;;;;;63.00;47.67;;;;;21.00;43.86;101553.33;109217;1281;22931;-72
2021/12/12 02:13:43;;;;;;;;;56.33;44.67;;;;;21.00;43.66;101550.10;109242;1279;24260;-73
2021/12/12 02:16:09;;;;;;;;;61.33;48.00;;;;;21.02;43.60;101548.61;109246;1278;23389;-73
2021/12/12 02:18:38;;;;;;;;;69.67;51.33;;;;;21.01;43.69;101544.31;109240;1281;18657;-73
2021/12/12 02:21:08;;;;;;;;;56.00;44.50;;;;;21.01;43.78;101537.60;109235;1280;20553;-73
2021/12/12 02:23:45;;;;;;;;;56.00;47.67;;;;;21.01;43.71;101539.61;109244;1278;20205;-73
2021/12/12 02:37:16;;;;;;;;;63.00;46.00;;;;;21.02;43.51;101545.52;108763;1285;20786;-72
2021/12/12 02:39:42;;;;;;;;;58.50;46.00;;;;;21.01;43.35;101542.34;108704;1285;21329;-73
2021/12/12 02:42:08;;;;;;;;;56.33;46.00;;;;;21.02;43.67;101548.45;108772;1285;18721;-73
2021/12/12 02:44:34;;;;;;;;;60.00;46.67;;;;;20.97;43.53;101543.17;108758;1286;19510;-73
2021/12/12 02:47:00;;;;;;;;;58.67;47.00;;;;;21.00;43.57;101552.42;108789;1285;21288;-73
2021/12/12 02:49:38;;;;;;;;;63.33;47.67;;;;;21.00;43.44;101544.27;108738;1285;19115;-73
2021/12/12 02:52:04;;;;;;;;;58.00;46.67;;;;;21.01;43.52;101529.30;108783;1285;19019;-73
2021/12/12 02:54:30;;;;;;;;;58.33;47.00;;;;;21.00;43.47;101527.14;108755;1285;20372;-73
2021/12/12 02:56:56;;;;;;;;;59.67;46.67;;;;;21.02;43.50;101518.25;108763;1286;19057;-73
2021/12/12 02:59:22;;;;;;;;;53.00;45.00;;;;;21.01;43.31;101517.27;108754;1285;19024;-72
2021/12/12 03:01:48;;;;;;;;;48.50;43.50;;;;;21.02;43.33;101543.16;108784;1285;19306;-73
2021/12/12 03:04:14;;;;;;;;;48.33;43.00;;;;;21.03;43.53;101574.13;108749;1286;23377;-73
2021/12/12 03:06:40;;;;;;;;;55.33;42.67;;;;;21.02;43.33;101573.48;108787;1281;19437;-73
2021/12/12 03:09:06;;;;;;;;;63.33;45.33;;;;;21.02;43.48;101566.60;109263;1279;23446;-73
2021/12/12 03:11:32;;;;;;;;;54.67;44.00;;;;;21.02;43.23;101573.35;109298;1279;21947;-73
2021/12/12 03:13:58;;;;;;;;;60.33;46.33;;;;;21.03;43.22;101572.49;109282;1279;19231;-73
2021/12/12 03:16:24;;;;;;;;;57.33;44.33;;;;;21.02;43.08;101583.33;109273;1279;19929;-73
2021/12/12 03:18:50;;;;;;;;;57.00;43.67;;;;;21.01;43.22;101570.52;109277;1279;20778;-73
2021/12/12 03:21:16;;;;;;;;;57.67;43.67;;;;;21.01;43.27;101565.58;109252;1280;22495;-72
2021/12/12 03:23:42;;;;;;;;;60.00;44.33;;;;;21.01;43.13;101560.73;109276;1280;21725;-73
2021/12/12 03:26:08;;;;;;;;;60.00;45.00;;;;;21.00;43.12;101554.77;109291;1279;18987;-73
2021/12/12 03:28:34;;;;;;;;;53.00;43.00;;;;;21.02;43.18;101550.61;109267;1279;18807;-73
2021/12/12 03:31:00;;;;;;;;;48.33;40.00;;;;;21.02;43.03;101550.08;109279;1280;19897;-73
2021/12/12 03:33:26;;;;;;;;;62.33;45.33;;;;;21.01;43.26;101553.61;109276;1279;23051;-72
2021/12/12 03:35:52;;;;;;;;;50.33;43.67;;;;;21.00;43.18;101581.14;109299;1279;23492;-73
2021/12/12 03:38:17;;;;;;;;;52.33;43.67;;;;;21.01;43.15;101576.17;109286;1279;22932;-73
2021/12/12 03:40:45;;;;;;;;;56.00;42.67;;;;;21.00;43.01;101576.81;109239;1279;23053;-74
2021/12/12 03:43:11;;;;;;;;;54.00;42.50;;;;;20.99;43.23;101578.91;109275;1279;20477;-75
2021/12/12 03:45:37;;;;;;;;;52.33;43.00;;;;;21.00;43.12;101579.30;109302;1280;19883;-73
2021/12/12 03:48:02;;;;;;;;;52.50;42.00;;;;;20.99;43.10;101568.38;109270;1279;23091;-74
2021/12/12 03:50:28;;;;;;;;;48.00;40.00;;;;;20.98;43.16;101575.73;109233;1279;20751;-73
2021/12/12 03:52:54;;;;;;;;;58.00;42.33;;;;;20.97;43.02;101576.70;109253;1279;20836;-75
2021/12/12 03:55:20;;;;;;;;;59.00;44.00;;;;;20.97;42.98;101573.96;109248;1280;19226;-73
2021/12/12 03:57:48;;;;;;;;;52.00;43.00;;;;;20.98;43.08;101567.02;109228;1279;18668;-75
2021/12/12 04:00:14;;;;;;;;;51.67;43.33;;;;;20.99;42.92;101563.42;109240;1280;21087;-75
2021/12/12 04:02:40;;;;;;;;;58.00;43.00;;;;;20.99;42.89;101578.91;109233;1279;22587;-75
2021/12/12 04:05:06;;;;;;;;;56.33;43.00;;;;;21.00;42.86;101584.79;109283;1279;20226;-75
2021/12/12 04:07:32;;;;;;;;;56.00;44.33;;;;;21.00;42.82;101591.56;109214;1279;19335;-74
2021/12/12 04:09:58;;;;;;;;;51.33;42.67;;;;;21.01;42.67;101609.63;109262;1280;19563;-75
2021/12/12 04:12:24;;;;;;;;;50.67;42.00;;;;;21.00;42.84;101617.27;109290;1280;19252;-75
2021/12/12 04:14:50;;;;;;;;;48.00;43.00;;;;;21.00;42.86;101618.17;109262;1279;19384;-74
2021/12/12 04:17:16;;;;;;;;;49.67;40.67;;;;;21.00;42.67;101618.04;109297;1280;18710;-74
2021/12/12 04:19:42;;;;;;;;;42.50;38.50;;;;;21.00;42.71;101622.44;109306;1279;19189;-74
2021/12/12 04:22:08;;;;;;;;;55.33;43.33;;;;;20.99;42.85;101614.27;109297;1280;20493;-76
2021/12/12 04:24:34;;;;;;;;;53.00;41.67;;;;;20.99;42.79;101614.48;109269;1279;23134;-75
2021/12/12 04:27:00;;;;;;;;;53.50;43.00;;;;;20.98;42.73;101614.91;109262;1280;20147;-75
2021/12/12 04:29:28;;;;;;;;;51.50;43.00;;;;;20.98;43.00;101608.23;109257;1279;20173;-73
2021/12/12 04:31:54;;;;;;;;;49.67;42.33;;;;;20.99;42.84;101605.92;109163;1280;23571;-74
2021/12/12 04:34:20;;;;;;;;;52.33;43.33;;;;;20.99;42.72;101608.88;109268;1279;20210;-74
2021/12/12 04:36:46;;;;;;;;;47.00;41.00;;;;;20.99;42.87;101607.42;109246;1279;20198;-74
2021/12/12 04:39:12;;;;;;;;;57.00;43.33;;;;;20.98;42.70;101603.33;109269;1279;20014;-75
2021/12/12 04:41:38;;;;;;;;;47.33;39.00;;;;;20.98;42.78;101600.05;109282;1280;18613;-74
2021/12/12 04:44:04;;;;;;;;;47.67;40.33;;;;;20.98;42.86;101603.84;109247;1280;19459;-76
2021/12/12 04:46:38;;;;;;;;;49.33;43.00;;;;;20.99;42.64;101605.07;109282;1279;18679;-74
2021/12/12 04:51:48;;;;;;;;;53.00;44.00;;;;;20.99;42.64;101599.09;109273;1279;20127;-75
2021/12/12 04:54:14;;;;;;;;;53.67;42.33;;;;;20.98;42.64;101597.36;109253;1280;18795;-75
2021/12/12 04:56:40;;;;;;;;;50.50;40.50;;;;;20.99;42.63;101602.55;109275;1279;23203;-74
2021/12/12 04:59:06;;;;;;;;;46.33;40.67;;;;;20.98;42.53;101596.98;109293;1279;19674;-74
2021/12/12 05:01:32;;;;;;;;;46.00;41.00;;;;;20.98;42.55;101600.83;109226;1280;21581;-74
2021/12/12 05:03:58;;;;;;;;;49.00;43.00;;;;;20.98;42.61;101606.84;109241;1279;18765;-75
2021/12/12 05:06:26;;;;;;;;;47.00;40.50;;;;;20.99;42.63;101608.86;109213;1279;19890;-75
2021/12/12 05:08:52;;;;;;;;;54.67;40.33;;;;;20.98;42.67;101606.42;109279;1279;19676;-74
2021/12/12 05:11:18;;;;;;;;;44.33;40.67;;;;;20.99;42.62;101605.80;109154;1280;20390;-74
2021/12/12 05:13:44;;;;;;;;;46.50;39.50;;;;;20.98;42.62;101602.76;109456;1280;21144;-75
2021/12/12 05:16:10;;;;;;;;;54.67;42.67;;;;;20.98;42.43;101604.44;109293;1279;21175;-76
2021/12/12 05:18:36;;;;;;;;;49.00;42.00;;;;;20.99;42.55;101603.81;109307;1279;18798;-75
2021/12/12 05:21:02;;;;;;;;;49.00;43.00;;;;;20.98;42.29;101605.85;109281;1279;19949;-75
2021/12/12 05:23:27;;;;;;;;;52.00;40.00;;;;;20.98;42.40;101605.54;109228;1280;18606;-74
2021/12/12 05:25:53;;;;;;;;;47.50;42.00;;;;;20.98;42.46;101609.86;109312;1279;18614;-74
2021/12/12 05:28:19;;;;;;;;;52.00;43.00;;;;;20.98;42.48;101610.79;109279;1279;23016;-75
2021/12/12 05:30:45;;;;;;;;;42.50;37.50;;;;;20.99;42.61;101609.64;109231;1279;22008;-73
2021/12/12 05:33:11;;;;;;;;;51.50;41.00;;;;;20.99;42.47;101614.48;109278;1279;20019;-74
2021/12/12 05:35:39;;;;;;;;;46.67;39.33;;;;;20.98;42.53;101614.42;109229;1279;21239;-73
2021/12/12 05:38:05;;;;;;;;;47.00;40.00;;;;;20.98;42.36;101617.13;109238;1279;20255;-74
2021/12/12 05:40:31;;;;;;;;;58.33;42.00;;;;;20.97;42.36;101612.14;109271;1280;19364;-73
2021/12/12 05:42:59;;;;;;;;;45.00;40.00;;;;;20.98;42.41;101618.22;109212;1279;19374;-74
2021/12/12 05:45:25;;;;;;;;;40.00;38.33;;;;;20.97;42.45;101618.88;109277;1279;19305;-74
2021/12/12 05:47:51;;;;;;;;;53.33;40.67;;;;;20.97;42.29;101622.46;109261;1280;19339;-73
2021/12/12 05:50:16;;;;;;;;;47.00;40.50;;;;;20.98;42.43;101625.67;109301;1279;19411;-73
2021/12/12 05:52:42;;;;;;;;;53.00;42.67;;;;;20.99;42.51;101630.86;109259;1279;18661;-74
2021/12/12 05:55:08;;;;;;;;;41.00;36.00;;;;;20.99;42.33;101633.54;109253;1279;18579;-74
2021/12/12 05:57:34;;;;;;;;;50.00;39.67;;;;;21.00;42.49;101634.97;109268;1279;19993;-73
2021/12/12 06:00:00;;;;;;;;;46.50;39.50;;;;;21.00;42.23;101640.59;109207;1280;20459;-74
2021/12/12 06:02:26;;;;;;;;;48.67;41.00;;;;;20.99;42.24;101643.71;109279;1279;18858;-73
2021/12/12 06:04:52;;;;;;;;;54.33;39.33;;;;;20.98;42.27;101647.45;109238;1280;19351;-73
2021/12/12 06:07:18;;;;;;;;;51.00;42.00;;;;;20.99;42.38;101656.33;109258;1280;19225;-73
2021/12/12 06:09:44;;;;;;;;;50.50;40.50;;;;;20.98;42.22;101654.05;109207;1279;18869;-73
2021/12/12 06:12:10;;;;;;;;;49.00;41.00;;;;;20.98;42.27;101653.31;109263;1279;19428;-73
2021/12/12 06:14:36;;;;;;;;;46.67;42.33;;;;;20.97;42.33;101654.11;109239;1280;18788;-73
2021/12/12 06:17:02;;;;;;;;;58.00;40.00;;;;;20.97;42.31;101655.89;109237;1279;18673;-73
2021/12/12 06:19:28;;;;;;;;;43.00;39.50;;;;;20.98;42.19;101653.30;109266;1279;19472;-72
2021/12/12 06:21:54;;;;;;;;;46.00;42.00;;;;;20.97;42.18;101657.08;109250;1279;23222;-73
2021/12/12 06:24:19;;;;;;;;;48.00;40.00;;;;;20.98;42.29;101654.42;109280;1279;22366;-73
2021/12/12 06:26:45;;;;;;;;;45.00;40.00;;;;;20.97;42.34;101659.02;109241;1280;20812;-73
2021/12/12 06:29:11;;;;;;;;;48.00;40.00;;;;;20.99;42.26;101662.10;109248;1280;19399;-73
2021/12/12 06:31:37;;;;;;;;;40.50;37.00;;;;;20.98;42.24;101662.54;109287;1279;20473;-73
2021/12/12 06:34:03;;;;;;;;;47.00;39.00;;;;;20.98;42.26;101664.35;109253;1281;19300;-73
2021/12/12 06:36:30;;;;;;;;;46.00;40.67;;;;;20.99;42.14;101669.54;109248;1280;18971;-73
2021/12/12 06:38:55;;;;;;;;;46.50;38.00;;;;;20.98;42.22;101672.16;109257;1279;18820;-73
2021/12/12 06:41:21;;;;;;;;;47.00;39.50;;;;;20.99;42.16;101671.01;109275;1279;19244;-71
2021/12/12 06:43:48;;;;;;;;;43.00;39.50;;;;;20.98;42.22;101669.28;109251;1279;19065;-73
2021/12/12 06:46:14;;;;;;;;;45.50;40.00;;;;;20.98;42.22;101671.10;109237;1279;18990;-73
2021/12/12 06:48:40;;;;;;;;;48.00;40.00;;;;;20.98;42.23;101669.52;109295;1280;24035;-74
2021/12/12 06:51:06;;;;;;;;;43.00;36.00;;;;;20.97;42.28;101673.02;109307;1279;18887;-73
2021/12/12 06:53:31;;;;;;;;;47.00;36.00;;;;;20.98;42.16;101670.54;109252;1280;18827;-73
2021/12/12 06:55:57;;;;;;;;;51.00;42.50;;;;;20.99;42.06;101676.32;109225;1280;21462;-73
2021/12/12 06:58:23;;;;;;;;;53.00;39.50;;;;;20.98;42.32;101675.14;109243;1279;18541;-74
2021/12/12 07:00:49;;;;;;;;;41.00;38.00;;;;;20.99;42.22;101678.32;109244;1280;19099;-73
2021/12/12 07:03:15;;;;;;;;;50.50;42.00;;;;;20.97;42.19;101676.09;109283;1279;20793;-74
2021/12/12 07:05:41;;;;;;;;;50.50;42.50;;;;;20.97;42.28;101677.02;109280;1279;20763;-72
2021/12/12 07:08:07;;;;;;;;;43.00;39.00;;;;;20.96;42.13;101676.79;109279;1279;21574;-74
2021/12/12 07:10:33;;;;;;;;;51.50;40.00;;;;;20.98;42.33;101674.52;109251;1279;19340;-73
2021/12/12 07:12:59;;;;;;;;;43.67;40.00;;;;;21.00;42.49;101677.31;109269;1281;20751;-74
2021/12/12 07:15:25;;;;;;;;;39.00;33.00;;;;;20.99;42.40;101676.98;109237;1279;18832;-73
2021/12/12 07:17:51;;;;;;;;;45.50;39.00;;;;;21.00;42.52;101673.88;109132;1280;20053;-73
2021/12/12 07:20:17;;;;;;;;;41.00;36.50;;;;;20.99;42.80;101679.58;109252;1280;21302;-74
2021/12/12 07:22:43;;;;;;;;;36.50;32.00;;;;;20.94;42.76;101677.85;109260;1280;18738;-74
2021/12/12 07:25:09;;;;;;;;;42.50;35.00;;;;;20.92;42.74;101682.21;109246;1279;19306;-73
2021/12/12 07:27:35;;;;;;;;;36.50;34.00;;;;;20.93;42.71;101683.86;109228;1279;19214;-73
2021/12/12 07:30:01;;;;;;;;;40.50;35.00;;;;;20.91;42.90;101674.54;109266;1279;22322;-75
2021/12/12 07:32:27;;;;;;;;;35.00;31.00;;;;;20.92;43.11;101679.20;109267;1279;19615;-75
2021/12/12 07:34:53;;;;;;;;;31.50;30.50;;;;;20.91;43.19;101681.83;109294;1279;18595;-75
2021/12/12 07:37:19;;;;;;;;;38.50;28.50;;;;;20.94;43.22;101681.86;109222;1279;18676;-73
2021/12/12 07:39:45;;;;;;;;;32.00;29.00;;;;;20.96;43.17;101689.27;109254;1279;19962;-75
2021/12/12 07:42:11;;;;;;;;;28.00;27.50;;;;;20.95;43.18;101689.91;109269;1279;18694;-75
2021/12/12 07:44:38;;;;;;;;;34.00;28.00;;;;;20.95;43.29;101686.16;109242;1280;21338;-75
2021/12/12 07:47:04;;;;;;;;;36.00;27.50;;;;;20.94;43.30;101686.23;109270;1279;20220;-75
2021/12/12 07:49:30;;;;;;;;;32.00;25.00;;;;;20.95;43.43;101693.21;109268;1279;18561;-75
2021/12/12 07:51:56;;;;;;;;;31.50;27.00;;;;;20.95;43.52;101695.05;109258;1280;18664;-77
2021/12/12 07:54:22;;;;;;;;;26.50;23.00;;;;;20.95;43.61;101696.83;109250;1279;19237;-78
2021/12/12 07:56:48;;;;;;;;;31.00;27.00;;;;;20.93;43.77;101691.63;109228;1279;22978;-78
2021/12/12 07:59:14;;;;;;;;;31.00;27.00;;;;;20.91;43.85;101701.42;109261;1279;20431;-77
2021/12/12 08:01:40;;;;;;;;;30.00;25.50;;;;;20.96;43.80;101700.23;109259;1279;19495;-78
2021/12/12 08:04:06;;;;;;;;;33.33;29.00;;;;;21.03;43.75;101700.23;109294;1279;19182;-76
2021/12/12 08:06:32;;;;;;;;;25.00;23.00;;;;;21.06;43.92;101703.01;109246;1279;18835;-76
2021/12/12 08:08:58;;;;;;;;;22.00;21.00;;;;;21.07;43.92;101707.61;109248;1280;19345;-76
2021/12/12 08:11:24;;;;;;;;;30.00;27.50;;;;;21.10;44.10;101712.41;109228;1279;22168;-76
2021/12/12 08:13:49;;;;;;;;;28.50;20.50;;;;;21.14;44.40;101713.80;109041;1280;18688;-77
2021/12/12 08:16:15;;;;;;;;;25.00;23.00;;;;;21.14;44.57;101716.70;109078;1280;19972;-78
2021/12/12 08:18:41;;;;;;;;;27.00;24.50;;;;;21.16;44.76;101718.58;109104;1280;140403;-78
2021/12/12 08:21:07;;;;;;;;;24.33;20.67;;;;;21.17;45.06;101722.79;109278;1279;18488;-78
2021/12/12 08:23:33;;;;;;;;;26.00;23.00;;;;;21.20;45.39;101725.61;109258;1279;19339;-78
2021/12/12 08:26:00;;;;;;;;;31.00;27.00;;;;;21.20;45.85;101726.88;109248;1279;18951;-77
2021/12/12 08:28:26;;;;;;;;;22.33;21.33;;;;;21.13;46.30;101727.22;109240;1279;21177;-77
2021/12/12 08:30:52;;;;;;;;;29.50;24.50;;;;;21.18;47.11;101735.65;109292;1280;20837;-77
2021/12/12 08:33:17;;;;;;;;;26.50;21.00;;;;;21.26;47.65;101738.06;109248;1280;22446;-77
2021/12/12 08:35:43;;;;;;;;;32.00;25.00;;;;;21.30;47.92;101732.83;109281;1280;19227;-78
2021/12/12 08:38:09;;;;;;;;;27.00;24.00;;;;;21.31;47.79;101737.96;109242;1280;19479;-77
2021/12/12 08:40:35;;;;;;;;;20.00;20.00;;;;;21.26;47.79;101734.80;109244;1279;20385;-76
2021/12/12 08:43:01;;;;;;;;;25.50;22.50;;;;;21.21;47.89;101735.81;109151;1279;19257;-78
2021/12/12 08:45:27;;;;;;;;;28.00;24.00;;;;;21.23;47.45;101736.62;109123;1279;19439;-78
2021/12/12 08:47:53;;;;;;;;;28.50;25.00;;;;;21.22;47.53;101739.40;109195;1279;18793;-78
2021/12/12 08:50:19;;;;;;;;;21.00;20.00;;;;;21.22;47.14;101739.98;109231;1279;18740;-77
2021/12/12 08:52:47;;;;;;;;;24.00;22.00;;;;;21.21;47.16;101738.02;109290;1279;19837;-76
2021/12/12 08:55:18;;;;;;;;;24.00;21.33;;;;;21.18;46.96;101735.77;109158;1280;19206;-75
2021/12/12 08:57:50;;;;;;;;;22.00;21.00;;;;;21.22;45.95;101733.92;109136;1279;20523;-74
2021/12/12 09:00:17;;;;;;;;;23.33;21.00;;;;;21.21;45.95;101735.31;109227;1279;20995;-74
2021/12/12 09:02:43;;;;;;;;;28.33;23.67;;;;;21.17;46.04;101733.39;109248;1279;21885;-76
2021/12/12 09:05:08;;;;;;;;;24.00;21.00;;;;;21.12;45.80;101734.02;109256;1279;19297;-75
2021/12/12 09:07:35;;;;;;;;;25.00;22.00;;;;;21.14;45.66;101735.54;109291;1279;19480;-74
2021/12/12 09:10:01;;;;;;;;;24.33;21.67;;;;;21.13;45.77;101728.48;109243;1280;19040;-75
2021/12/12 09:12:27;;;;;;;;;24.00;21.50;;;;;21.13;45.36;101725.38;109252;1279;18705;-75
2021/12/12 09:14:53;;;;;;;;;25.00;21.00;;;;;21.20;45.21;101720.90;109255;1279;20043;-74
2021/12/12 09:17:19;;;;;;;;;26.00;20.50;;;;;21.24;45.46;101719.52;109282;1280;22566;-73
2021/12/12 09:19:45;;;;;;;;;23.00;20.00;;;;;21.23;45.50;101714.60;109335;1279;20136;-74
2021/12/12 09:22:11;;;;;;;;;29.50;26.00;;;;;21.22;45.65;101716.52;109222;1279;20084;-77
2021/12/12 09:24:44;;;;;;;;;24.00;21.50;;;;;21.17;45.21;101711.14;109236;1279;19351;-76
2021/12/12 09:27:10;;;;;;;;;34.67;27.00;;;;;21.15;44.68;101719.21;109238;1279;18833;-76
2021/12/12 09:29:35;;;;;;;;;31.50;24.00;;;;;20.89;43.96;101715.97;109258;1281;19484;-75
2021/12/12 09:32:01;;;;;;;;;31.00;27.00;;;;;20.89;43.64;101711.62;109266;1279;18716;-74
2021/12/12 09:34:28;;;;;;;;;28.00;25.50;;;;;21.00;43.58;101708.12;109291;1280;19095;-77
2021/12/12 09:36:54;;;;;;;;;26.33;23.67;;;;;21.25;43.81;101706.75;109276;1279;20241;-77
2021/12/12 09:39:19;;;;;;;;;23.00;21.50;;;;;21.42;43.47;101701.70;109279;1279;19244;-78
2021/12/12 09:41:45;;;;;;;;;23.00;21.50;;;;;21.60;43.24;101705.67;109275;1279;19409;-75
2021/12/12 09:44:13;;;;;;;;;32.33;24.67;;;;;21.64;43.16;101703.41;109231;1280;20009;-75
2021/12/12 09:46:45;;;;;;;;;59.67;44.33;;;;;21.56;43.35;101703.77;109224;1279;20596;-75
2021/12/12 09:51:55;;;;;;;;;103.00;71.33;;;;;21.37;46.99;101702.05;109241;1279;21867;-75
2021/12/12 09:54:21;;;;;;;;;101.33;71.67;;;;;21.27;47.82;101707.94;109242;1280;19150;-74
2021/12/12 09:56:47;;;;;;;;;106.67;84.33;;;;;21.28;47.96;101705.14;109236;1279;18742;-77
2021/12/12 09:59:12;;;;;;;;;103.67;73.33;;;;;21.31;48.26;101706.70;109254;1280;21806;-77
2021/12/12 10:01:38;;;;;;;;;96.67;72.67;;;;;21.36;48.93;101709.77;109222;1279;23322;-78
2021/12/12 10:04:04;;;;;;;;;89.33;66.67;;;;;21.33;48.74;101709.57;109227;1279;19244;-75
2021/12/12 10:06:30;;;;;;;;;79.00;59.00;;;;;21.30;48.66;101709.63;109272;1280;20250;-77
2021/12/12 10:08:56;;;;;;;;;82.33;57.33;;;;;21.29;47.86;101705.77;109260;1280;19220;-79
2021/12/12 10:11:22;;;;;;;;;77.33;59.00;;;;;21.27;48.09;101704.50;109257;1279;22367;-75
2021/12/12 10:13:48;;;;;;;;;70.67;54.67;;;;;21.26;47.77;101702.65;109267;1279;22232;-78
2021/12/12 10:16:14;;;;;;;;;67.33;53.00;;;;;21.31;47.40;101703.38;109268;1279;18990;-79
2021/12/12 10:18:40;;;;;;;;;60.00;49.33;;;;;21.38;47.72;101710.88;109259;1279;18753;-79
2021/12/12 10:21:06;;;;;;;;;66.67;47.67;;;;;21.39;47.64;101706.64;109250;1279;19813;-79
2021/12/12 10:23:33;;;;;;;;;65.00;47.67;;;;;21.40;47.55;101711.55;109258;1279;18633;-79
2021/12/12 10:25:59;;;;;;;;;60.33;43.33;;;;;21.43;47.44;101708.20;109246;1279;20485;-79
2021/12/12 10:28:25;;;;;;;;;62.67;44.67;;;;;21.43;47.41;101709.42;109243;1280;21035;-80
2021/12/12 10:30:53;;;;;;;;;54.00;42.67;;;;;21.42;47.07;101711.19;109272;1280;22888;-79
2021/12/12 10:33:19;;;;;;;;;52.50;41.50;;;;;21.40;46.96;101706.29;109313;1280;21539;-76
2021/12/12 10:35:45;;;;;;;;;51.00;41.00;;;;;21.38;46.79;101705.77;109241;1279;20002;-76
2021/12/12 10:38:11;;;;;;;;;52.00;40.50;;;;;21.34;46.77;101705.43;109266;1280;19263;-72
2021/12/12 10:40:37;;;;;;;;;46.00;40.00;;;;;21.29;46.85;101708.73;109258;1279;18870;-76
2021/12/12 10:43:04;;;;;;;;;42.50;33.50;;;;;21.23;46.62;101708.22;109291;1279;20976;-74
2021/12/12 10:45:30;;;;;;;;;42.67;33.67;;;;;21.16;46.55;101705.30;109363;1279;19021;-73
2021/12/12 10:47:56;;;;;;;;;39.50;33.00;;;;;21.14;46.64;101707.46;109336;1279;18700;-73
2021/12/12 10:50:22;;;;;;;;;39.50;32.00;;;;;21.12;46.69;101698.95;109329;1279;20126;-74
2021/12/12 10:52:48;;;;;;;;;31.00;29.00;;;;;21.12;46.70;101698.45;109315;1279;19021;-75
2021/12/12 10:55:14;;;;;;;;;33.00;30.50;;;;;21.08;46.57;101705.15;109321;1280;21355;-74
2021/12/12 10:57:40;;;;;;;;;39.00;33.50;;;;;21.09;46.33;101709.40;109269;1280;19336;-73
2021/12/12 11:00:06;;;;;;;;;52.00;40.00;;;;;20.63;43.61;101716.56;109290;1279;18752;-75
2021/12/12 11:02:33;;;;;;;;;46.00;38.00;;;;;19.66;41.77;101717.89;109244;1279;20198;-75
2021/12/12 11:04:59;;;;;;;;;43.00;37.00;;;;;19.77;41.51;101709.22;109242;1280;19551;-76
2021/12/12 11:07:25;;;;;;;;;41.00;33.50;;;;;20.05;41.36;101703.77;109237;1279;18878;-73
2021/12/12 11:09:53;;;;;;;;;38.00;31.00;;;;;20.28;41.00;101703.31;109269;1280;21871;-75
2021/12/12 11:12:24;;;;;;;;;38.33;34.67;;;;;20.45;40.99;101698.42;109328;1279;19722;-75
2021/12/12 11:14:50;;;;;;;;;42.67;34.00;;;;;20.57;40.80;101699.23;109306;1279;18953;-75
2021/12/12 11:17:17;;;;;;;;;36.50;30.50;;;;;20.64;40.92;101695.61;109342;1280;19295;-75